sensor_id;sensor_type;location;lat;lon;timestamp;P1;durP1;ratioP1;P2;durP2;ratioP2
17670;SDS011;8954;48.694;8.940;2023-02-24T06:41:58;0.00;;;0.00;;
17670;SDS011;8954;48.694;8.940;2023-02-24T06:44:30;3.37;;;3.17;;
17670;SDS011;8954;48.694;8.940;2023-02-24T06:46:58;3.22;;;3.03;;
17670;SDS011;8954;48.694;8.940;2023-02-24T06:49:24;0.00;;;0.00;;
17670;SDS011;8954;48.694;8.940;2023-02-24T06:51:50;0.30;;;0.30;;
17670;SDS011;8954;48.694;8.940;2023-02-24T06:54:20;1.60;;;1.50;;
17670;SDS011;8954;48.694;8.940;2023-02-24T06:56:47;2.53;;;2.40;;
17670;SDS011;8954;48.694;8.940;2023-02-24T06:59:13;2.53;;;2.43;;
17670;SDS011;8954;48.694;8.940;2023-02-24T07:01:45;3.00;;;2.80;;
17670;SDS011;8954;48.694;8.940;2023-02-24T07:04:12;3.07;;;2.87;;
17670;SDS011;8954;48.694;8.940;2023-02-24T07:06:39;2.33;;;2.20;;
17670;SDS011;8954;48.694;8.940;2023-02-24T07:09:07;2.90;;;2.70;;
17670;SDS011;8954;48.694;8.940;2023-02-24T07:11:38;2.13;;;2.00;;
17670;SDS011;8954;48.694;8.940;2023-02-24T07:14:10;2.00;;;1.90;;
17670;SDS011;8954;48.694;8.940;2023-02-24T07:16:37;2.03;;;1.93;;
17670;SDS011;8954;48.694;8.940;2023-02-24T07:19:09;1.90;;;1.80;;
17670;SDS011;8954;48.694;8.940;2023-02-24T07:21:45;2.27;;;2.07;;
17670;SDS011;8954;48.694;8.940;2023-02-24T07:24:27;1.70;;;1.60;;
17670;SDS011;8954;48.694;8.940;2023-02-24T07:29:32;2.03;;;1.93;;
17670;SDS011;8954;48.694;8.940;2023-02-24T07:31:59;2.07;;;1.97;;
17670;SDS011;8954;48.694;8.940;2023-02-24T07:34:27;2.20;;;2.10;;
17670;SDS011;8954;48.694;8.940;2023-02-24T07:36:54;2.20;;;2.10;;
17670;SDS011;8954;48.694;8.940;2023-02-24T07:39:21;1.97;;;1.87;;
17670;SDS011;8954;48.694;8.940;2023-02-24T07:41:47;1.80;;;1.70;;
17670;SDS011;8954;48.694;8.940;2023-02-24T07:44:14;1.80;;;1.70;;
17670;SDS011;8954;48.694;8.940;2023-02-24T07:46:43;1.50;;;1.40;;
17670;SDS011;8954;48.694;8.940;2023-02-24T07:49:13;1.50;;;1.40;;
17670;SDS011;8954;48.694;8.940;2023-02-24T07:51:42;1.33;;;1.33;;
17670;SDS011;8954;48.694;8.940;2023-02-24T07:54:09;1.60;;;1.50;;
17670;SDS011;8954;48.694;8.940;2023-02-24T07:56:35;1.43;;;1.40;;
17670;SDS011;8954;48.694;8.940;2023-02-24T07:59:10;0.00;;;0.00;;
17670;SDS011;8954;48.694;8.940;2023-02-24T08:01:40;0.30;;;0.30;;
17670;SDS011;8954;48.694;8.940;2023-02-24T08:04:14;1.20;;;1.20;;
17670;SDS011;8954;48.694;8.940;2023-02-24T08:06:44;1.30;;;1.20;;
17670;SDS011;8954;48.694;8.940;2023-02-24T08:11:41;1.33;;;1.23;;
17670;SDS011;8954;48.694;8.940;2023-02-24T08:14:10;1.50;;;1.40;;
17670;SDS011;8954;48.694;8.940;2023-02-24T08:16:43;1.57;;;1.47;;
17670;SDS011;8954;48.694;8.940;2023-02-24T08:19:18;1.70;;;1.60;;
17670;SDS011;8954;48.694;8.940;2023-02-24T08:21:46;1.60;;;1.50;;
17670;SDS011;8954;48.694;8.940;2023-02-24T08:24:14;1.70;;;1.60;;
17670;SDS011;8954;48.694;8.940;2023-02-24T08:26:43;1.70;;;1.60;;
17670;SDS011;8954;48.694;8.940;2023-02-24T08:29:22;1.93;;;1.83;;
17670;SDS011;8954;48.694;8.940;2023-02-24T08:31:47;1.60;;;1.50;;
17670;SDS011;8954;48.694;8.940;2023-02-24T08:34:14;1.10;;;1.10;;
17670;SDS011;8954;48.694;8.940;2023-02-24T08:36:40;0.93;;;0.93;;
17670;SDS011;8954;48.694;8.940;2023-02-24T08:39:12;1.17;;;1.07;;
17670;SDS011;8954;48.694;8.940;2023-02-24T08:41:38;0.97;;;0.97;;
17670;SDS011;8954;48.694;8.940;2023-02-24T08:44:15;0.00;;;0.00;;
17670;SDS011;8954;48.694;8.940;2023-02-24T08:46:44;0.00;;;0.00;;
17670;SDS011;8954;48.694;8.940;2023-02-24T08:49:16;0.30;;;0.30;;
17670;SDS011;8954;48.694;8.940;2023-02-24T08:51:44;0.40;;;0.40;;
17670;SDS011;8954;48.694;8.940;2023-02-24T08:54:13;0.47;;;0.47;;
17670;SDS011;8954;48.694;8.940;2023-02-24T08:56:42;0.83;;;0.73;;
17670;SDS011;8954;48.694;8.940;2023-02-24T08:59:13;0.63;;;0.63;;
17670;SDS011;8954;48.694;8.940;2023-02-24T09:01:58;0.00;;;0.00;;
17670;SDS011;8954;48.694;8.940;2023-02-24T09:04:44;0.20;;;0.20;;
17670;SDS011;8954;48.694;8.940;2023-02-24T09:07:14;0.33;;;0.33;;
17670;SDS011;8954;48.694;8.940;2023-02-24T09:09:51;0.60;;;0.60;;
17670;SDS011;8954;48.694;8.940;2023-02-24T09:12:20;0.00;;;0.00;;
17670;SDS011;8954;48.694;8.940;2023-02-24T09:14:56;0.00;;;0.00;;
17670;SDS011;8954;48.694;8.940;2023-02-24T09:17:26;0.20;;;0.20;;
17670;SDS011;8954;48.694;8.940;2023-02-24T09:20:22;0.30;;;0.30;;
17670;SDS011;8954;48.694;8.940;2023-02-24T09:22:55;0.40;;;0.40;;
17670;SDS011;8954;48.694;8.940;2023-02-24T09:25:27;0.50;;;0.50;;
17670;SDS011;8954;48.694;8.940;2023-02-24T09:30:48;0.40;;;0.40;;
17670;SDS011;8954;48.694;8.940;2023-02-24T09:33:24;0.40;;;0.40;;
17670;SDS011;8954;48.694;8.940;2023-02-24T09:38:45;0.30;;;0.30;;
17670;SDS011;8954;48.694;8.940;2023-02-24T09:44:24;0.30;;;0.20;;
17670;SDS011;8954;48.694;8.940;2023-02-24T09:49:29;0.13;;;0.00;;
17670;SDS011;8954;48.694;8.940;2023-02-24T09:52:07;0.00;;;0.00;;
17670;SDS011;8954;48.694;8.940;2023-02-24T09:54:41;0.00;;;0.00;;
17670;SDS011;8954;48.694;8.940;2023-02-24T09:57:17;0.00;;;0.00;;
17670;SDS011;8954;48.694;8.940;2023-02-24T10:03:03;0.00;;;0.00;;
17670;SDS011;8954;48.694;8.940;2023-02-24T10:08:36;0.00;;;0.00;;
17670;SDS011;8954;48.694;8.940;2023-02-24T10:11:06;0.00;;;0.00;;
17670;SDS011;8954;48.694;8.940;2023-02-24T10:13:46;0.00;;;0.00;;
17670;SDS011;8954;48.694;8.940;2023-02-24T10:16:18;0.00;;;0.00;;
17670;SDS011;8954;48.694;8.940;2023-02-24T10:18:53;0.00;;;0.00;;
17670;SDS011;8954;48.694;8.940;2023-02-24T10:22:12;0.00;;;0.00;;
17670;SDS011;8954;48.694;8.940;2023-02-24T10:24:57;0.00;;;0.00;;
17670;SDS011;8954;48.694;8.940;2023-02-24T10:27:46;0.00;;;0.00;;
17670;SDS011;8954;48.694;8.940;2023-02-24T10:30:37;0.03;;;0.03;;
17670;SDS011;8954;48.694;8.940;2023-02-24T10:35:44;0.00;;;0.00;;
17670;SDS011;8954;48.694;8.940;2023-02-24T10:38:10;0.00;;;0.00;;
17670;SDS011;8954;48.694;8.940;2023-02-24T10:40:46;0.00;;;0.00;;
17670;SDS011;8954;48.694;8.940;2023-02-24T10:43:22;0.10;;;0.00;;
17670;SDS011;8954;48.694;8.940;2023-02-24T10:45:57;0.00;;;0.00;;
17670;SDS011;8954;48.694;8.940;2023-02-24T10:48:34;0.00;;;0.00;;
17670;SDS011;8954;48.694;8.940;2023-02-24T10:51:13;0.10;;;0.10;;
17670;SDS011;8954;48.694;8.940;2023-02-24T10:54:41;0.00;;;0.00;;
17670;SDS011;8954;48.694;8.940;2023-02-24T10:57:20;0.13;;;0.13;;
17670;SDS011;8954;48.694;8.940;2023-02-24T11:00:00;0.37;;;0.20;;
17670;SDS011;8954;48.694;8.940;2023-02-24T11:02:50;0.20;;;0.20;;
17670;SDS011;8954;48.694;8.940;2023-02-24T11:05:40;0.27;;;0.23;;
17670;SDS011;8954;48.694;8.940;2023-02-24T11:08:20;0.30;;;0.30;;
17670;SDS011;8954;48.694;8.940;2023-02-24T11:13:47;0.27;;;0.27;;
17670;SDS011;8954;48.694;8.940;2023-02-24T11:19:47;0.53;;;0.53;;
17670;SDS011;8954;48.694;8.940;2023-02-24T11:22:21;0.50;;;0.50;;
17670;SDS011;8954;48.694;8.940;2023-02-24T11:24:51;0.47;;;0.47;;
17670;SDS011;8954;48.694;8.940;2023-02-24T11:27:20;0.27;;;0.23;;
17670;SDS011;8954;48.694;8.940;2023-02-24T11:35:40;0.30;;;0.30;;
17670;SDS011;8954;48.694;8.940;2023-02-24T11:43:41;0.23;;;0.20;;
17670;SDS011;8954;48.694;8.940;2023-02-24T11:46:17;0.17;;;0.17;;
17670;SDS011;8954;48.694;8.940;2023-02-24T11:48:53;0.10;;;0.10;;
17670;SDS011;8954;48.694;8.940;2023-02-24T11:51:33;0.10;;;0.10;;
17670;SDS011;8954;48.694;8.940;2023-02-24T11:54:11;0.10;;;0.10;;
17670;SDS011;8954;48.694;8.940;2023-02-24T11:56:40;0.30;;;0.10;;
17670;SDS011;8954;48.694;8.940;2023-02-24T11:59:10;0.10;;;0.10;;
17670;SDS011;8954;48.694;8.940;2023-02-24T12:04:34;0.07;;;0.00;;
17670;SDS011;8954;48.694;8.940;2023-02-24T12:09:58;0.00;;;0.00;;
17670;SDS011;8954;48.694;8.940;2023-02-24T12:12:38;0.00;;;0.00;;
17670;SDS011;8954;48.694;8.940;2023-02-24T12:21:04;0.00;;;0.00;;
17670;SDS011;8954;48.694;8.940;2023-02-24T12:23:54;0.00;;;0.00;;
17670;SDS011;8954;48.694;8.940;2023-02-24T12:26:27;0.00;;;0.00;;
17670;SDS011;8954;48.694;8.940;2023-02-24T12:34:58;0.00;;;0.00;;
17670;SDS011;8954;48.694;8.940;2023-02-24T12:46:34;0.10;;;0.00;;
17670;SDS011;8954;48.694;8.940;2023-02-24T12:54:45;0.10;;;0.10;;
17670;SDS011;8954;48.694;8.940;2023-02-24T12:57:27;0.00;;;0.00;;
17670;SDS011;8954;48.694;8.940;2023-02-24T13:00:26;0.00;;;0.00;;
17670;SDS011;8954;48.694;8.940;2023-02-24T13:05:58;0.00;;;0.00;;
17670;SDS011;8954;48.694;8.940;2023-02-24T13:14:22;0.00;;;0.00;;
17670;SDS011;8954;48.694;8.940;2023-02-24T13:17:03;0.00;;;0.00;;
17670;SDS011;8954;48.694;8.940;2023-02-24T13:19:29;0.00;;;0.00;;
17670;SDS011;8954;48.694;8.940;2023-02-24T13:21:56;0.00;;;0.00;;
17670;SDS011;8954;48.694;8.940;2023-02-24T13:24:23;0.00;;;0.00;;
17670;SDS011;8954;48.694;8.940;2023-02-24T13:26:50;0.10;;;0.10;;
17670;SDS011;8954;48.694;8.940;2023-02-24T13:29:15;0.00;;;0.00;;
17670;SDS011;8954;48.694;8.940;2023-02-24T13:31:42;0.00;;;0.00;;
17670;SDS011;8954;48.694;8.940;2023-02-24T13:36:49;0.07;;;0.07;;
17670;SDS011;8954;48.694;8.940;2023-02-24T13:39:30;0.13;;;0.00;;
17670;SDS011;8954;48.694;8.940;2023-02-24T13:42:03;0.10;;;0.10;;
17670;SDS011;8954;48.694;8.940;2023-02-24T13:44:30;0.00;;;0.00;;
17670;SDS011;8954;48.694;8.940;2023-02-24T13:55:07;0.10;;;0.10;;
17670;SDS011;8954;48.694;8.940;2023-02-24T13:57:53;0.10;;;0.10;;
17670;SDS011;8954;48.694;8.940;2023-02-24T14:03:38;0.00;;;0.00;;
17670;SDS011;8954;48.694;8.940;2023-02-24T14:06:12;0.00;;;0.00;;
17670;SDS011;8954;48.694;8.940;2023-02-24T14:08:54;0.00;;;0.00;;
17670;SDS011;8954;48.694;8.940;2023-02-24T14:11:31;0.10;;;0.10;;
17670;SDS011;8954;48.694;8.940;2023-02-24T14:14:01;0.10;;;0.10;;
17670;SDS011;8954;48.694;8.940;2023-02-24T14:16:28;0.00;;;0.00;;
17670;SDS011;8954;48.694;8.940;2023-02-24T14:18:57;0.10;;;0.10;;
17670;SDS011;8954;48.694;8.940;2023-02-24T14:21:28;0.07;;;0.07;;
17670;SDS011;8954;48.694;8.940;2023-02-24T14:24:01;0.10;;;0.10;;
17670;SDS011;8954;48.694;8.940;2023-02-24T14:26:50;0.30;;;0.17;;
17670;SDS011;8954;48.694;8.940;2023-02-24T14:29:18;0.20;;;0.10;;
17670;SDS011;8954;48.694;8.940;2023-02-24T14:31:54;0.10;;;0.10;;
17670;SDS011;8954;48.694;8.940;2023-02-24T14:34:21;0.00;;;0.00;;
17670;SDS011;8954;48.694;8.940;2023-02-24T14:36:56;0.10;;;0.10;;
17670;SDS011;8954;48.694;8.940;2023-02-24T14:39:25;0.10;;;0.10;;
17670;SDS011;8954;48.694;8.940;2023-02-24T14:44:50;0.23;;;0.10;;
17670;SDS011;8954;48.694;8.940;2023-02-24T14:47:18;0.10;;;0.10;;
17670;SDS011;8954;48.694;8.940;2023-02-24T14:49:50;0.00;;;0.00;;
17670;SDS011;8954;48.694;8.940;2023-02-24T14:54:51;0.00;;;0.00;;
17670;SDS011;8954;48.694;8.940;2023-02-24T14:57:41;0.10;;;0.00;;
17670;SDS011;8954;48.694;8.940;2023-02-24T15:00:14;0.10;;;0.10;;
17670;SDS011;8954;48.694;8.940;2023-02-24T15:02:50;0.10;;;0.10;;
17670;SDS011;8954;48.694;8.940;2023-02-24T15:05:20;0.13;;;0.10;;
17670;SDS011;8954;48.694;8.940;2023-02-24T15:07:46;0.03;;;0.03;;
17670;SDS011;8954;48.694;8.940;2023-02-24T15:10:45;0.10;;;0.10;;
17670;SDS011;8954;48.694;8.940;2023-02-24T15:13:08;0.20;;;0.20;;
17670;SDS011;8954;48.694;8.940;2023-02-24T15:15:37;0.13;;;0.13;;
17670;SDS011;8954;48.694;8.940;2023-02-24T15:18:08;0.10;;;0.10;;
17670;SDS011;8954;48.694;8.940;2023-02-24T15:20:39;0.10;;;0.10;;
17670;SDS011;8954;48.694;8.940;2023-02-24T15:23:05;0.10;;;0.10;;
17670;SDS011;8954;48.694;8.940;2023-02-24T15:25:48;0.10;;;0.03;;
17670;SDS011;8954;48.694;8.940;2023-02-24T15:28:21;0.00;;;0.00;;
17670;SDS011;8954;48.694;8.940;2023-02-24T15:31:08;0.20;;;0.10;;
17670;SDS011;8954;48.694;8.940;2023-02-24T15:33:42;0.10;;;0.10;;
17670;SDS011;8954;48.694;8.940;2023-02-24T15:36:18;0.10;;;0.10;;
17670;SDS011;8954;48.694;8.940;2023-02-24T15:38:48;0.10;;;0.10;;
17670;SDS011;8954;48.694;8.940;2023-02-24T15:41:20;0.10;;;0.10;;
17670;SDS011;8954;48.694;8.940;2023-02-24T15:43:47;0.20;;;0.10;;
17670;SDS011;8954;48.694;8.940;2023-02-24T15:48:46;0.10;;;0.10;;
17670;SDS011;8954;48.694;8.940;2023-02-24T15:56:58;0.17;;;0.17;;
17670;SDS011;8954;48.694;8.940;2023-02-24T15:59:26;0.10;;;0.10;;
17670;SDS011;8954;48.694;8.940;2023-02-24T16:01:51;0.00;;;0.00;;
17670;SDS011;8954;48.694;8.940;2023-02-24T16:04:17;0.30;;;0.10;;
17670;SDS011;8954;48.694;8.940;2023-02-24T16:06:44;0.53;;;0.17;;
17670;SDS011;8954;48.694;8.940;2023-02-24T16:09:22;0.60;;;0.30;;
17670;SDS011;8954;48.694;8.940;2023-02-24T16:11:52;0.30;;;0.13;;
17670;SDS011;8954;48.694;8.940;2023-02-24T16:14:18;1.20;;;0.20;;
17670;SDS011;8954;48.694;8.940;2023-02-24T16:16:43;0.30;;;0.27;;
17670;SDS011;8954;48.694;8.940;2023-02-24T16:19:11;0.10;;;0.10;;
17670;SDS011;8954;48.694;8.940;2023-02-24T16:21:38;0.30;;;0.30;;
17670;SDS011;8954;48.694;8.940;2023-02-24T16:24:04;0.30;;;0.30;;
17670;SDS011;8954;48.694;8.940;2023-02-24T16:26:34;0.20;;;0.20;;
17670;SDS011;8954;48.694;8.940;2023-02-24T16:29:02;0.60;;;0.30;;
17670;SDS011;8954;48.694;8.940;2023-02-24T16:31:28;0.20;;;0.20;;
17670;SDS011;8954;48.694;8.940;2023-02-24T16:33:54;0.30;;;0.30;;
17670;SDS011;8954;48.694;8.940;2023-02-24T16:36:21;0.40;;;0.40;;
17670;SDS011;8954;48.694;8.940;2023-02-24T16:38:48;0.30;;;0.30;;
17670;SDS011;8954;48.694;8.940;2023-02-24T16:41:16;0.50;;;0.50;;
17670;SDS011;8954;48.694;8.940;2023-02-24T16:43:42;0.33;;;0.30;;
17670;SDS011;8954;48.694;8.940;2023-02-24T16:46:11;0.60;;;0.47;;
17670;SDS011;8954;48.694;8.940;2023-02-24T16:48:39;0.33;;;0.33;;
17670;SDS011;8954;48.694;8.940;2023-02-24T16:51:06;0.37;;;0.37;;
17670;SDS011;8954;48.694;8.940;2023-02-24T16:53:32;0.30;;;0.23;;
17670;SDS011;8954;48.694;8.940;2023-02-24T16:55:58;0.43;;;0.43;;
17670;SDS011;8954;48.694;8.940;2023-02-24T16:58:24;0.53;;;0.40;;
17670;SDS011;8954;48.694;8.940;2023-02-24T17:00:50;0.47;;;0.47;;
17670;SDS011;8954;48.694;8.940;2023-02-24T17:03:25;0.50;;;0.50;;
17670;SDS011;8954;48.694;8.940;2023-02-24T17:06:08;0.53;;;0.50;;
17670;SDS011;8954;48.694;8.940;2023-02-24T17:08:34;0.40;;;0.40;;
17670;SDS011;8954;48.694;8.940;2023-02-24T17:10:59;0.57;;;0.57;;
17670;SDS011;8954;48.694;8.940;2023-02-24T17:13:25;0.40;;;0.40;;
17670;SDS011;8954;48.694;8.940;2023-02-24T17:15:51;0.57;;;0.57;;
17670;SDS011;8954;48.694;8.940;2023-02-24T17:18:24;0.50;;;0.50;;
17670;SDS011;8954;48.694;8.940;2023-02-24T17:20:50;0.57;;;0.57;;
17670;SDS011;8954;48.694;8.940;2023-02-24T17:23:16;0.63;;;0.63;;
